createdAt,value
2023-05-04T00:00:54.339Z,43.10
2023-05-04T00:05:57.200Z,47.72
2023-05-04T00:11:00.108Z,67.10
2023-05-04T00:16:03.217Z,60.05
2023-05-04T00:21:06.807Z,48.88
2023-05-04T00:26:09.738Z,39.65
2023-05-04T00:31:13.576Z,46.80
2023-05-04T00:36:16.564Z,37.25
2023-05-04T00:41:20.298Z,45.95
2023-05-04T00:46:23.627Z,47.15
2023-05-04T00:51:27.546Z,37.10
2023-05-04T00:56:30.767Z,31.77
2023-05-04T01:01:33.618Z,32.47
2023-05-04T01:06:48.396Z,35.00
2023-05-04T01:12:00.638Z,34.17
2023-05-04T01:17:05.876Z,32.88
2023-05-04T01:27:22.999Z,35.55
2023-05-04T01:32:28.519Z,39.53
2023-05-04T01:37:34.015Z,34.03
2023-05-04T01:42:36.903Z,43.45
2023-05-04T01:47:40.773Z,30.25
2023-05-04T01:52:43.785Z,40.80
2023-05-04T01:57:47.178Z,33.53
2023-05-04T02:02:50.169Z,38.22
2023-05-04T02:07:55.448Z,40.33
2023-05-04T02:12:58.485Z,41.40
2023-05-04T02:18:01.782Z,38.63
2023-05-04T02:23:04.743Z,41.70
2023-05-04T02:28:07.843Z,48.80
2023-05-04T02:33:11.201Z,54.10
2023-05-04T02:38:14.214Z,49.38
2023-05-04T02:43:17.636Z,44.85
2023-05-04T02:48:20.397Z,36.67
2023-05-04T02:53:23.717Z,33.60
2023-05-04T02:58:26.746Z,46.75
2023-05-04T03:03:29.972Z,52.53
2023-05-04T03:08:32.940Z,29.15
2023-05-04T03:13:35.922Z,32.40
2023-05-04T03:23:59.972Z,19.65
2023-05-04T03:29:03.644Z,13.13
2023-05-04T03:34:06.757Z,16.33
2023-05-04T03:39:09.913Z,18.23
2023-05-04T03:44:12.886Z,21.70
2023-05-04T03:49:16.190Z,23.50
2023-05-04T03:54:19.648Z,15.23
2023-05-04T03:59:22.680Z,23.75
2023-05-04T04:04:26.070Z,16.95
2023-05-04T04:09:29.395Z,23.63
2023-05-04T04:14:32.689Z,16.35
2023-05-04T04:19:35.818Z,13.45
2023-05-04T04:24:38.780Z,8.60
2023-05-04T04:29:41.971Z,10.20
2023-05-04T04:34:45.340Z,10.77
2023-05-04T04:39:48.320Z,16.17
2023-05-04T04:44:52.624Z,13.15
2023-05-04T04:49:55.700Z,13.55
2023-05-04T04:54:58.541Z,11.13
2023-05-04T05:00:02.220Z,10.88
2023-05-04T05:05:08.424Z,13.65
2023-05-04T05:10:11.645Z,8.07
2023-05-04T05:15:14.799Z,5.63
2023-05-04T05:20:17.714Z,8.63
2023-05-04T05:25:20.773Z,6.57
2023-05-04T05:30:23.763Z,7.38
2023-05-04T05:35:26.613Z,21.48
2023-05-04T05:40:29.827Z,4.07
2023-05-04T05:45:32.632Z,12.55
2023-05-04T05:50:35.690Z,6.93
2023-05-04T05:55:38.565Z,7.10
2023-05-04T06:00:41.465Z,6.32
2023-05-04T06:05:44.484Z,6.25
2023-05-04T06:10:47.386Z,11.80
2023-05-04T06:15:54.161Z,10.00
2023-05-04T06:21:01.059Z,6.55
2023-05-04T06:26:08.636Z,6.88
2023-05-04T06:31:11.466Z,8.00
2023-05-04T06:36:14.586Z,17.25
2023-05-04T06:41:19.923Z,8.70
2023-05-04T06:51:25.747Z,11.30
2023-05-04T06:56:28.595Z,9.88
2023-05-04T07:01:31.669Z,9.75
2023-05-04T07:06:34.725Z,11.18
2023-05-04T07:11:37.768Z,12.55
2023-05-04T07:16:41.029Z,6.47
2023-05-04T07:21:44.084Z,9.35
2023-05-04T07:26:46.986Z,9.20
2023-05-04T07:31:49.876Z,6.65
2023-05-04T07:36:52.728Z,9.45
2023-05-04T07:41:55.555Z,13.18
2023-05-04T07:47:02.165Z,10.50
2023-05-04T07:52:05.678Z,15.55
2023-05-04T07:57:08.544Z,9.68
2023-05-04T08:02:12.131Z,15.75
2023-05-04T08:07:19.286Z,14.18
2023-05-04T08:12:22.305Z,17.33
2023-05-04T08:17:25.490Z,13.70
2023-05-04T08:22:28.309Z,16.30
2023-05-04T08:27:31.267Z,9.57
2023-05-04T08:32:34.196Z,10.13
2023-05-04T08:37:37.757Z,14.27
2023-05-04T08:42:40.841Z,15.38
2023-05-04T08:47:43.923Z,21.52
2023-05-04T08:52:47.666Z,29.92
2023-05-04T08:57:51.336Z,21.58
2023-05-04T09:02:54.674Z,37.08
2023-05-04T09:07:58.637Z,26.65
2023-05-04T09:13:01.593Z,20.83
2023-05-04T09:18:06.284Z,21.15
2023-05-04T09:23:09.951Z,19.42
2023-05-04T09:33:17.500Z,20.90
2023-05-04T09:38:27.334Z,19.85
2023-05-04T09:43:45.186Z,15.57
2023-05-04T09:48:52.863Z,13.88
2023-05-04T09:53:58.801Z,25.17
2023-05-04T09:59:02.381Z,15.35
2023-05-04T10:04:05.520Z,20.20
2023-05-04T10:09:08.752Z,14.32
2023-05-04T10:14:11.746Z,27.40
2023-05-04T10:19:45.091Z,12.15
2023-05-04T10:25:20.688Z,8.82
2023-05-04T10:30:24.032Z,19.15
2023-05-04T10:35:28.256Z,23.90
2023-05-04T10:40:37.828Z,24.55
2023-05-04T10:45:42.249Z,8.82
2023-05-04T10:50:50.302Z,15.45
2023-05-04T10:55:53.481Z,20.73
2023-05-04T11:00:56.710Z,15.02
2023-05-04T11:05:59.862Z,17.48
2023-05-04T11:11:07.036Z,18.30
2023-05-04T11:16:13.028Z,8.63
2023-05-04T11:21:36.341Z,11.38
2023-05-04T11:26:49.703Z,10.20
2023-05-04T11:31:56.736Z,11.52
2023-05-04T11:36:59.883Z,13.73
2023-05-04T11:42:08.135Z,11.52
2023-05-04T11:47:11.051Z,11.45
2023-05-04T11:52:13.909Z,10.27
2023-05-04T11:57:23.819Z,12.93
2023-05-04T12:02:27.403Z,10.05
2023-05-04T12:07:30.649Z,11.80
2023-05-04T12:12:37.061Z,11.52
2023-05-04T12:17:41.930Z,17.52
2023-05-04T12:22:44.909Z,26.13
2023-05-04T12:27:47.801Z,11.10
2023-05-04T12:32:50.651Z,15.60
2023-05-04T12:37:53.867Z,13.35
2023-05-04T12:42:57.114Z,11.20
2023-05-04T12:48:00.278Z,12.23
2023-05-04T12:53:04.897Z,8.93
2023-05-04T12:58:07.804Z,10.10
2023-05-04T13:03:13.211Z,10.82
2023-05-04T13:08:18.933Z,13.32
2023-05-04T13:18:29.541Z,21.90
2023-05-04T13:23:32.406Z,17.30
2023-05-04T13:28:36.288Z,14.45
2023-05-04T13:33:41.621Z,10.52
2023-05-04T13:38:44.511Z,11.60
2023-05-04T13:43:47.458Z,13.93
2023-05-04T13:48:50.479Z,12.13
2023-05-04T13:53:53.311Z,9.02
2023-05-04T13:58:56.348Z,12.30
2023-05-04T14:03:59.408Z,14.93
2023-05-04T14:09:02.335Z,13.15
2023-05-04T14:14:05.155Z,14.95
2023-05-04T14:19:08.084Z,12.02
2023-05-04T14:24:11.095Z,11.68
2023-05-04T14:29:14.016Z,11.85
2023-05-04T14:34:17.314Z,13.23
2023-05-04T14:39:20.243Z,19.85
2023-05-04T14:44:23.674Z,19.38
2023-05-04T14:49:36.758Z,17.13
2023-05-04T14:54:43.521Z,12.10
2023-05-04T15:04:49.605Z,9.65
2023-05-04T15:09:52.510Z,10.25
2023-05-04T15:14:55.438Z,13.13
2023-05-04T15:19:58.436Z,12.95
2023-05-04T15:25:02.294Z,11.30
2023-05-04T15:30:09.311Z,10.77
2023-05-04T15:35:12.368Z,10.93
2023-05-04T15:40:15.427Z,10.07
2023-05-04T15:45:18.701Z,17.58
2023-05-04T15:50:22.197Z,15.30
2023-05-04T15:55:26.284Z,12.63
2023-05-04T16:00:30.127Z,9.98
2023-05-04T16:05:33.162Z,12.70
2023-05-04T16:10:36.653Z,15.20
2023-05-04T16:15:40.407Z,12.63
2023-05-04T16:20:43.442Z,11.38
2023-05-04T16:25:46.356Z,14.88
2023-05-04T16:30:50.060Z,15.50
2023-05-04T16:35:53.552Z,10.15
2023-05-04T16:40:56.508Z,8.82
2023-05-04T16:45:59.613Z,10.95
2023-05-04T16:51:02.532Z,12.02
2023-05-04T16:56:06.061Z,8.40
2023-05-04T17:01:10.955Z,8.55
2023-05-04T17:06:14.195Z,8.07
2023-05-04T17:11:17.246Z,8.48
2023-05-04T17:16:20.153Z,13.15
2023-05-04T17:21:23.219Z,10.80
2023-05-04T17:26:26.376Z,10.43
2023-05-04T17:31:29.362Z,13.85
2023-05-04T17:36:32.769Z,12.05
2023-05-04T17:41:35.827Z,8.85
2023-05-04T17:46:38.921Z,11.55
2023-05-04T17:51:41.894Z,15.07
2023-05-04T17:56:44.723Z,9.40
2023-05-04T18:01:47.580Z,13.13
2023-05-04T18:06:51.014Z,10.00
2023-05-04T18:11:54.029Z,11.75
2023-05-04T18:16:57.148Z,9.95
2023-05-04T18:22:00.150Z,10.65
2023-05-04T18:27:03.445Z,11.40
2023-05-04T18:32:09.318Z,12.32
2023-05-04T18:37:12.325Z,9.18
2023-05-04T18:42:15.255Z,10.90
2023-05-04T18:47:18.169Z,11.52
2023-05-04T18:52:22.168Z,11.57
2023-05-04T18:57:25.143Z,12.07
2023-05-04T19:02:30.342Z,10.73
2023-05-04T19:07:33.335Z,11.95
2023-05-04T19:12:36.782Z,13.80
2023-05-04T19:17:39.782Z,10.65
2023-05-04T19:22:42.737Z,11.65
2023-05-04T19:27:47.437Z,12.55
2023-05-04T19:32:51.056Z,12.82
2023-05-04T19:37:54.771Z,12.80
2023-05-04T19:42:57.717Z,16.67
2023-05-04T19:48:00.690Z,13.05
2023-05-04T19:53:05.185Z,11.90
2023-05-04T19:58:08.151Z,14.35
2023-05-04T20:03:11.280Z,14.80
2023-05-04T20:08:14.416Z,13.82
2023-05-04T20:13:17.391Z,13.98
2023-05-04T20:18:20.532Z,12.02
2023-05-04T20:23:23.603Z,13.35
2023-05-04T20:28:26.605Z,12.85
2023-05-04T20:33:29.476Z,13.70
2023-05-04T20:38:32.912Z,14.02
2023-05-04T20:43:36.330Z,16.40
2023-05-04T20:48:39.496Z,12.45
2023-05-04T20:53:42.757Z,14.45
2023-05-04T20:58:45.558Z,15.27
2023-05-04T21:03:48.932Z,14.23
2023-05-04T21:08:51.926Z,17.63
2023-05-04T21:13:54.806Z,18.48
2023-05-04T21:18:57.636Z,19.65
2023-05-04T21:24:00.549Z,25.98
2023-05-04T21:29:03.484Z,18.33
2023-05-04T21:34:06.758Z,18.25
2023-05-04T21:39:09.651Z,18.75
2023-05-04T21:44:15.905Z,14.85
2023-05-04T21:49:19.752Z,19.60
2023-05-04T21:54:24.097Z,18.45
2023-05-04T21:59:26.967Z,20.20
2023-05-04T22:04:30.746Z,19.40
2023-05-04T22:09:33.695Z,22.38
2023-05-04T22:14:36.735Z,23.20
2023-05-04T22:19:39.672Z,22.88
2023-05-04T22:24:42.963Z,23.25
2023-05-04T22:29:45.805Z,27.38
2023-05-04T22:34:48.649Z,26.80
2023-05-04T22:39:51.463Z,21.05
2023-05-04T22:44:54.216Z,22.05
2023-05-04T22:49:57.397Z,22.88
2023-05-04T22:55:00.149Z,21.80
2023-05-04T23:00:08.310Z,26.00
2023-05-04T23:05:11.485Z,26.63
2023-05-04T23:10:14.325Z,24.13
2023-05-04T23:15:18.545Z,23.15
2023-05-04T23:20:21.473Z,26.17
2023-05-04T23:25:24.382Z,25.58
2023-05-04T23:30:27.289Z,28.23
2023-05-04T23:35:30.117Z,33.05
2023-05-04T23:40:33.192Z,27.50
2023-05-04T23:45:36.048Z,29.90
2023-05-04T23:50:39.335Z,31.55
2023-05-04T23:55:42.130Z,28.27
